sensor_id;sensor_type;location;lat;lon;timestamp;P1;durP1;ratioP1;P2;durP2;ratioP2
63943;SDS011;50121;51.218;7.664;2023-02-24T00:01:34;63.25;;;24.27;;
63943;SDS011;50121;51.218;7.664;2023-02-24T00:04:04;45.35;;;18.23;;
63943;SDS011;50121;51.218;7.664;2023-02-24T00:06:34;44.95;;;17.90;;
63943;SDS011;50121;51.218;7.664;2023-02-24T00:11:34;31.65;;;12.65;;
63943;SDS011;50121;51.218;7.664;2023-02-24T00:14:09;64.85;;;9.70;;
63943;SDS011;50121;51.218;7.664;2023-02-24T00:16:38;102.85;;;9.07;;
63943;SDS011;50121;51.218;7.664;2023-02-24T00:19:05;226.75;;;11.20;;
63943;SDS011;50121;51.218;7.664;2023-02-24T00:21:33;179.95;;;9.68;;
63943;SDS011;50121;51.218;7.664;2023-02-24T00:24:01;145.00;;;7.70;;
63943;SDS011;50121;51.218;7.664;2023-02-24T00:26:29;132.52;;;8.18;;
63943;SDS011;50121;51.218;7.664;2023-02-24T00:28:56;146.15;;;8.52;;
63943;SDS011;50121;51.218;7.664;2023-02-24T00:31:26;121.70;;;8.55;;
63943;SDS011;50121;51.218;7.664;2023-02-24T00:33:57;25.33;;;6.10;;
63943;SDS011;50121;51.218;7.664;2023-02-24T00:36:26;48.10;;;6.07;;
63943;SDS011;50121;51.218;7.664;2023-02-24T00:38:58;96.45;;;7.38;;
63943;SDS011;50121;51.218;7.664;2023-02-24T00:41:26;82.70;;;6.43;;
63943;SDS011;50121;51.218;7.664;2023-02-24T00:43:58;87.63;;;8.15;;
63943;SDS011;50121;51.218;7.664;2023-02-24T00:46:49;103.70;;;8.23;;
63943;SDS011;50121;51.218;7.664;2023-02-24T00:49:17;58.83;;;6.13;;
63943;SDS011;50121;51.218;7.664;2023-02-24T00:51:47;70.80;;;5.80;;
63943;SDS011;50121;51.218;7.664;2023-02-24T00:54:15;23.02;;;5.88;;
63943;SDS011;50121;51.218;7.664;2023-02-24T00:56:44;45.85;;;6.07;;
63943;SDS011;50121;51.218;7.664;2023-02-24T00:59:14;112.00;;;8.15;;
63943;SDS011;50121;51.218;7.664;2023-02-24T01:01:42;86.50;;;8.00;;
63943;SDS011;50121;51.218;7.664;2023-02-24T01:04:11;62.58;;;7.25;;
63943;SDS011;50121;51.218;7.664;2023-02-24T01:06:42;83.50;;;7.80;;
63943;SDS011;50121;51.218;7.664;2023-02-24T01:09:11;29.58;;;7.47;;
63943;SDS011;50121;51.218;7.664;2023-02-24T01:11:40;13.85;;;7.28;;
63943;SDS011;50121;51.218;7.664;2023-02-24T01:14:29;23.58;;;7.95;;
63943;SDS011;50121;51.218;7.664;2023-02-24T01:16:57;16.73;;;8.02;;
63943;SDS011;50121;51.218;7.664;2023-02-24T01:19:26;19.70;;;8.60;;
63943;SDS011;50121;51.218;7.664;2023-02-24T01:22:01;16.58;;;8.68;;
63943;SDS011;50121;51.218;7.664;2023-02-24T01:24:30;16.50;;;8.82;;
63943;SDS011;50121;51.218;7.664;2023-02-24T01:26:58;21.52;;;9.50;;
63943;SDS011;50121;51.218;7.664;2023-02-24T01:29:26;23.65;;;10.13;;
63943;SDS011;50121;51.218;7.664;2023-02-24T01:31:54;27.83;;;11.18;;
63943;SDS011;50121;51.218;7.664;2023-02-24T01:34:25;35.63;;;11.23;;
63943;SDS011;50121;51.218;7.664;2023-02-24T01:36:56;27.85;;;11.25;;
63943;SDS011;50121;51.218;7.664;2023-02-24T01:39:23;49.35;;;11.65;;
63943;SDS011;50121;51.218;7.664;2023-02-24T01:41:51;25.75;;;10.35;;
63943;SDS011;50121;51.218;7.664;2023-02-24T01:46:51;78.63;;;13.00;;
63943;SDS011;50121;51.218;7.664;2023-02-24T01:51:51;42.15;;;10.85;;
63943;SDS011;50121;51.218;7.664;2023-02-24T01:54:21;63.08;;;11.63;;
63943;SDS011;50121;51.218;7.664;2023-02-24T01:56:50;67.80;;;11.05;;
63943;SDS011;50121;51.218;7.664;2023-02-24T01:59:18;65.13;;;11.25;;
63943;SDS011;50121;51.218;7.664;2023-02-24T02:01:46;75.10;;;11.25;;
63943;SDS011;50121;51.218;7.664;2023-02-24T02:07:15;20.40;;;10.32;;
63943;SDS011;50121;51.218;7.664;2023-02-24T02:09:43;39.10;;;10.60;;
63943;SDS011;50121;51.218;7.664;2023-02-24T02:12:10;62.97;;;10.65;;
63943;SDS011;50121;51.218;7.664;2023-02-24T02:14:39;125.80;;;11.30;;
63943;SDS011;50121;51.218;7.664;2023-02-24T02:25:04;98.93;;;11.43;;
63943;SDS011;50121;51.218;7.664;2023-02-24T02:27:44;79.35;;;11.02;;
63943;SDS011;50121;51.218;7.664;2023-02-24T02:33:04;208.95;;;12.93;;
63943;SDS011;50121;51.218;7.664;2023-02-24T02:35:43;117.53;;;10.48;;
63943;SDS011;50121;51.218;7.664;2023-02-24T02:40:47;106.97;;;9.27;;
63943;SDS011;50121;51.218;7.664;2023-02-24T02:45:53;74.93;;;7.43;;
63943;SDS011;50121;51.218;7.664;2023-02-24T02:48:25;158.77;;;9.55;;
63943;SDS011;50121;51.218;7.664;2023-02-24T02:50:56;138.00;;;9.55;;
63943;SDS011;50121;51.218;7.664;2023-02-24T02:53:34;137.40;;;10.10;;
63943;SDS011;50121;51.218;7.664;2023-02-24T02:56:24;45.10;;;7.57;;
63943;SDS011;50121;51.218;7.664;2023-02-24T02:58:56;24.20;;;8.10;;
63943;SDS011;50121;51.218;7.664;2023-02-24T03:01:28;24.48;;;7.82;;
63943;SDS011;50121;51.218;7.664;2023-02-24T03:03:59;70.38;;;8.75;;
63943;SDS011;50121;51.218;7.664;2023-02-24T03:06:34;41.35;;;7.78;;
63943;SDS011;50121;51.218;7.664;2023-02-24T03:09:05;26.48;;;7.45;;
63943;SDS011;50121;51.218;7.664;2023-02-24T03:11:38;21.00;;;7.72;;
63943;SDS011;50121;51.218;7.664;2023-02-24T03:14:07;23.92;;;8.40;;
63943;SDS011;50121;51.218;7.664;2023-02-24T03:16:40;22.42;;;8.60;;
63943;SDS011;50121;51.218;7.664;2023-02-24T03:21:43;18.42;;;7.65;;
63943;SDS011;50121;51.218;7.664;2023-02-24T03:24:12;28.08;;;8.88;;
63943;SDS011;50121;51.218;7.664;2023-02-24T03:31:54;25.02;;;8.25;;
63943;SDS011;50121;51.218;7.664;2023-02-24T03:36:54;26.38;;;9.02;;
63943;SDS011;50121;51.218;7.664;2023-02-24T03:39:22;20.52;;;7.88;;
63943;SDS011;50121;51.218;7.664;2023-02-24T03:42:10;23.42;;;8.23;;
63943;SDS011;50121;51.218;7.664;2023-02-24T03:44:39;27.38;;;8.50;;
63943;SDS011;50121;51.218;7.664;2023-02-24T03:47:07;21.20;;;8.00;;
63943;SDS011;50121;51.218;7.664;2023-02-24T03:49:35;24.23;;;8.40;;
63943;SDS011;50121;51.218;7.664;2023-02-24T04:00:42;31.67;;;11.30;;
63943;SDS011;50121;51.218;7.664;2023-02-24T04:03:34;35.83;;;10.52;;
63943;SDS011;50121;51.218;7.664;2023-02-24T04:06:39;25.95;;;11.43;;
63943;SDS011;50121;51.218;7.664;2023-02-24T04:11:54;23.23;;;10.60;;
63943;SDS011;50121;51.218;7.664;2023-02-24T04:14:28;24.00;;;10.98;;
63943;SDS011;50121;51.218;7.664;2023-02-24T04:16:58;29.25;;;11.75;;
63943;SDS011;50121;51.218;7.664;2023-02-24T04:19:30;24.83;;;11.32;;
63943;SDS011;50121;51.218;7.664;2023-02-24T04:21:59;26.50;;;10.70;;
63943;SDS011;50121;51.218;7.664;2023-02-24T04:24:29;24.20;;;10.07;;
63943;SDS011;50121;51.218;7.664;2023-02-24T04:26:58;25.73;;;10.23;;
63943;SDS011;50121;51.218;7.664;2023-02-24T04:29:32;29.73;;;11.10;;
63943;SDS011;50121;51.218;7.664;2023-02-24T04:32:02;28.02;;;10.77;;
63943;SDS011;50121;51.218;7.664;2023-02-24T04:34:32;26.92;;;10.52;;
63943;SDS011;50121;51.218;7.664;2023-02-24T04:37:01;24.02;;;10.43;;
63943;SDS011;50121;51.218;7.664;2023-02-24T04:39:29;24.85;;;9.88;;
63943;SDS011;50121;51.218;7.664;2023-02-24T04:41:59;29.15;;;10.38;;
63943;SDS011;50121;51.218;7.664;2023-02-24T04:44:27;24.17;;;10.15;;
63943;SDS011;50121;51.218;7.664;2023-02-24T04:46:54;27.52;;;10.32;;
63943;SDS011;50121;51.218;7.664;2023-02-24T04:49:22;28.10;;;9.40;;
63943;SDS011;50121;51.218;7.664;2023-02-24T04:51:50;24.33;;;10.02;;
63943;SDS011;50121;51.218;7.664;2023-02-24T04:54:18;26.75;;;9.57;;
63943;SDS011;50121;51.218;7.664;2023-02-24T04:56:46;26.52;;;10.15;;
63943;SDS011;50121;51.218;7.664;2023-02-24T04:59:20;21.75;;;9.73;;
63943;SDS011;50121;51.218;7.664;2023-02-24T05:01:48;27.80;;;10.75;;
63943;SDS011;50121;51.218;7.664;2023-02-24T05:04:20;24.42;;;10.48;;
63943;SDS011;50121;51.218;7.664;2023-02-24T05:06:47;21.23;;;9.98;;
63943;SDS011;50121;51.218;7.664;2023-02-24T05:09:16;21.20;;;9.52;;
63943;SDS011;50121;51.218;7.664;2023-02-24T05:11:45;23.23;;;9.77;;
63943;SDS011;50121;51.218;7.664;2023-02-24T05:14:15;27.50;;;8.57;;
63943;SDS011;50121;51.218;7.664;2023-02-24T05:16:44;19.30;;;8.15;;
63943;SDS011;50121;51.218;7.664;2023-02-24T05:19:13;20.63;;;8.02;;
63943;SDS011;50121;51.218;7.664;2023-02-24T05:22:00;18.88;;;7.93;;
63943;SDS011;50121;51.218;7.664;2023-02-24T05:24:32;17.90;;;7.95;;
63943;SDS011;50121;51.218;7.664;2023-02-24T05:27:00;16.08;;;7.53;;
63943;SDS011;50121;51.218;7.664;2023-02-24T05:29:30;22.02;;;8.30;;
63943;SDS011;50121;51.218;7.664;2023-02-24T05:31:58;20.38;;;6.30;;
63943;SDS011;50121;51.218;7.664;2023-02-24T05:34:27;24.67;;;7.15;;
63943;SDS011;50121;51.218;7.664;2023-02-24T05:36:59;18.88;;;6.80;;
63943;SDS011;50121;51.218;7.664;2023-02-24T05:39:27;14.52;;;6.97;;
63943;SDS011;50121;51.218;7.664;2023-02-24T05:41:54;15.05;;;7.55;;
63943;SDS011;50121;51.218;7.664;2023-02-24T05:44:23;16.15;;;7.15;;
63943;SDS011;50121;51.218;7.664;2023-02-24T05:46:53;18.27;;;7.50;;
63943;SDS011;50121;51.218;7.664;2023-02-24T05:49:25;23.88;;;8.40;;
63943;SDS011;50121;51.218;7.664;2023-02-24T05:51:55;26.05;;;12.20;;
63943;SDS011;50121;51.218;7.664;2023-02-24T05:54:26;13.52;;;6.93;;
63943;SDS011;50121;51.218;7.664;2023-02-24T05:56:57;19.65;;;7.22;;
63943;SDS011;50121;51.218;7.664;2023-02-24T05:59:25;24.30;;;9.60;;
63943;SDS011;50121;51.218;7.664;2023-02-24T06:01:59;18.33;;;6.80;;
63943;SDS011;50121;51.218;7.664;2023-02-24T06:04:27;19.55;;;5.90;;
63943;SDS011;50121;51.218;7.664;2023-02-24T06:07:17;16.75;;;6.97;;
63943;SDS011;50121;51.218;7.664;2023-02-24T06:09:47;14.73;;;5.97;;
63943;SDS011;50121;51.218;7.664;2023-02-24T06:12:23;13.38;;;6.47;;
63943;SDS011;50121;51.218;7.664;2023-02-24T06:14:51;13.90;;;6.15;;
63943;SDS011;50121;51.218;7.664;2023-02-24T06:17:19;13.13;;;5.55;;
63943;SDS011;50121;51.218;7.664;2023-02-24T06:19:48;13.38;;;5.72;;
63943;SDS011;50121;51.218;7.664;2023-02-24T06:22:17;14.88;;;5.50;;
63943;SDS011;50121;51.218;7.664;2023-02-24T06:24:45;18.90;;;5.90;;
63943;SDS011;50121;51.218;7.664;2023-02-24T06:27:15;12.05;;;5.65;;
63943;SDS011;50121;51.218;7.664;2023-02-24T06:29:44;11.68;;;5.32;;
63943;SDS011;50121;51.218;7.664;2023-02-24T06:32:15;13.88;;;5.40;;
63943;SDS011;50121;51.218;7.664;2023-02-24T06:34:43;9.57;;;4.70;;
63943;SDS011;50121;51.218;7.664;2023-02-24T06:37:13;11.75;;;6.30;;
63943;SDS011;50121;51.218;7.664;2023-02-24T06:39:40;11.88;;;5.78;;
63943;SDS011;50121;51.218;7.664;2023-02-24T06:42:08;12.05;;;5.65;;
63943;SDS011;50121;51.218;7.664;2023-02-24T06:44:38;16.27;;;5.82;;
63943;SDS011;50121;51.218;7.664;2023-02-24T06:47:07;19.33;;;5.43;;
63943;SDS011;50121;51.218;7.664;2023-02-24T06:49:38;13.32;;;5.93;;
63943;SDS011;50121;51.218;7.664;2023-02-24T06:52:06;11.15;;;5.90;;
63943;SDS011;50121;51.218;7.664;2023-02-24T06:54:34;15.27;;;6.15;;
63943;SDS011;50121;51.218;7.664;2023-02-24T06:57:02;11.70;;;6.03;;
63943;SDS011;50121;51.218;7.664;2023-02-24T06:59:30;10.68;;;5.78;;
63943;SDS011;50121;51.218;7.664;2023-02-24T07:01:58;12.80;;;5.78;;
63943;SDS011;50121;51.218;7.664;2023-02-24T07:04:27;14.82;;;5.70;;
63943;SDS011;50121;51.218;7.664;2023-02-24T07:06:56;15.90;;;5.80;;
63943;SDS011;50121;51.218;7.664;2023-02-24T07:09:28;19.02;;;5.65;;
63943;SDS011;50121;51.218;7.664;2023-02-24T07:11:56;14.18;;;6.80;;
63943;SDS011;50121;51.218;7.664;2023-02-24T07:14:25;18.08;;;6.57;;
63943;SDS011;50121;51.218;7.664;2023-02-24T07:17:18;11.02;;;6.47;;
63943;SDS011;50121;51.218;7.664;2023-02-24T07:19:48;16.35;;;7.05;;
63943;SDS011;50121;51.218;7.664;2023-02-24T07:22:16;19.50;;;7.03;;
63943;SDS011;50121;51.218;7.664;2023-02-24T07:24:50;14.18;;;6.57;;
63943;SDS011;50121;51.218;7.664;2023-02-24T07:27:25;17.80;;;7.60;;
63943;SDS011;50121;51.218;7.664;2023-02-24T07:29:53;13.82;;;6.30;;
63943;SDS011;50121;51.218;7.664;2023-02-24T07:32:20;14.07;;;6.88;;
63943;SDS011;50121;51.218;7.664;2023-02-24T07:34:48;12.70;;;6.82;;
63943;SDS011;50121;51.218;7.664;2023-02-24T07:37:16;17.50;;;6.32;;
63943;SDS011;50121;51.218;7.664;2023-02-24T07:39:46;12.45;;;6.05;;
63943;SDS011;50121;51.218;7.664;2023-02-24T07:42:14;12.77;;;5.60;;
63943;SDS011;50121;51.218;7.664;2023-02-24T07:44:43;15.55;;;6.15;;
63943;SDS011;50121;51.218;7.664;2023-02-24T07:47:12;13.55;;;5.93;;
63943;SDS011;50121;51.218;7.664;2023-02-24T07:49:41;13.35;;;6.05;;
63943;SDS011;50121;51.218;7.664;2023-02-24T07:52:11;67.05;;;29.58;;
63943;SDS011;50121;51.218;7.664;2023-02-24T07:54:38;11.82;;;6.00;;
63943;SDS011;50121;51.218;7.664;2023-02-24T07:57:06;13.23;;;6.22;;
63943;SDS011;50121;51.218;7.664;2023-02-24T07:59:39;12.55;;;6.05;;
63943;SDS011;50121;51.218;7.664;2023-02-24T08:02:13;10.48;;;6.25;;
63943;SDS011;50121;51.218;7.664;2023-02-24T08:04:40;16.05;;;6.35;;
63943;SDS011;50121;51.218;7.664;2023-02-24T08:07:16;11.52;;;6.30;;
63943;SDS011;50121;51.218;7.664;2023-02-24T08:09:49;14.88;;;6.07;;
63943;SDS011;50121;51.218;7.664;2023-02-24T08:12:37;17.17;;;8.38;;
63943;SDS011;50121;51.218;7.664;2023-02-24T08:15:08;14.77;;;6.50;;
63943;SDS011;50121;51.218;7.664;2023-02-24T08:17:43;15.38;;;7.43;;
63943;SDS011;50121;51.218;7.664;2023-02-24T08:20:13;13.77;;;7.57;;
63943;SDS011;50121;51.218;7.664;2023-02-24T08:22:42;16.40;;;6.00;;
63943;SDS011;50121;51.218;7.664;2023-02-24T08:25:13;11.18;;;6.18;;
63943;SDS011;50121;51.218;7.664;2023-02-24T08:27:48;12.52;;;5.55;;
63943;SDS011;50121;51.218;7.664;2023-02-24T08:30:33;14.95;;;6.43;;
63943;SDS011;50121;51.218;7.664;2023-02-24T08:33:05;14.10;;;6.13;;
63943;SDS011;50121;51.218;7.664;2023-02-24T08:35:34;16.42;;;5.53;;
63943;SDS011;50121;51.218;7.664;2023-02-24T08:40:31;14.18;;;6.22;;
63943;SDS011;50121;51.218;7.664;2023-02-24T08:43:01;12.88;;;5.60;;
63943;SDS011;50121;51.218;7.664;2023-02-24T08:48:48;14.80;;;6.22;;
63943;SDS011;50121;51.218;7.664;2023-02-24T08:51:17;15.32;;;5.90;;
63943;SDS011;50121;51.218;7.664;2023-02-24T08:53:49;14.38;;;5.82;;
63943;SDS011;50121;51.218;7.664;2023-02-24T08:56:19;10.45;;;6.20;;
63943;SDS011;50121;51.218;7.664;2023-02-24T08:58:52;10.90;;;6.82;;
63943;SDS011;50121;51.218;7.664;2023-02-24T09:01:26;13.02;;;6.57;;
63943;SDS011;50121;51.218;7.664;2023-02-24T09:04:01;88.50;;;31.95;;
63943;SDS011;50121;51.218;7.664;2023-02-24T09:09:06;14.98;;;8.18;;
63943;SDS011;50121;51.218;7.664;2023-02-24T09:11:50;15.20;;;7.95;;
63943;SDS011;50121;51.218;7.664;2023-02-24T09:14:26;15.98;;;8.05;;
63943;SDS011;50121;51.218;7.664;2023-02-24T09:16:56;18.50;;;8.10;;
63943;SDS011;50121;51.218;7.664;2023-02-24T09:19:49;11.80;;;8.35;;
63943;SDS011;50121;51.218;7.664;2023-02-24T09:22:22;24.13;;;8.55;;
63943;SDS011;50121;51.218;7.664;2023-02-24T09:25:23;16.83;;;8.32;;
63943;SDS011;50121;51.218;7.664;2023-02-24T09:28:03;17.23;;;9.05;;
63943;SDS011;50121;51.218;7.664;2023-02-24T09:30:38;14.55;;;8.60;;
63943;SDS011;50121;51.218;7.664;2023-02-24T09:33:18;18.35;;;9.30;;
63943;SDS011;50121;51.218;7.664;2023-02-24T09:35:52;23.48;;;10.65;;
63943;SDS011;50121;51.218;7.664;2023-02-24T09:38:29;19.27;;;8.43;;
63943;SDS011;50121;51.218;7.664;2023-02-24T09:41:23;13.13;;;8.07;;
63943;SDS011;50121;51.218;7.664;2023-02-24T09:44:01;13.52;;;7.25;;
63943;SDS011;50121;51.218;7.664;2023-02-24T09:46:42;14.68;;;8.15;;
63943;SDS011;50121;51.218;7.664;2023-02-24T09:49:21;10.68;;;7.60;;
63943;SDS011;50121;51.218;7.664;2023-02-24T09:51:49;17.40;;;8.20;;
63943;SDS011;50121;51.218;7.664;2023-02-24T09:54:28;12.25;;;7.50;;
63943;SDS011;50121;51.218;7.664;2023-02-24T09:57:01;9.02;;;6.97;;
63943;SDS011;50121;51.218;7.664;2023-02-24T10:02:32;10.38;;;6.85;;
63943;SDS011;50121;51.218;7.664;2023-02-24T10:05:08;11.20;;;7.43;;
63943;SDS011;50121;51.218;7.664;2023-02-24T10:07:40;16.38;;;7.75;;
63943;SDS011;50121;51.218;7.664;2023-02-24T10:10:13;13.50;;;8.60;;
63943;SDS011;50121;51.218;7.664;2023-02-24T10:12:57;9.70;;;7.28;;
63943;SDS011;50121;51.218;7.664;2023-02-24T10:15:27;16.30;;;8.68;;
63943;SDS011;50121;51.218;7.664;2023-02-24T10:26:24;12.77;;;7.82;;
63943;SDS011;50121;51.218;7.664;2023-02-24T10:28:59;13.10;;;8.55;;
63943;SDS011;50121;51.218;7.664;2023-02-24T10:31:45;15.65;;;7.97;;
63943;SDS011;50121;51.218;7.664;2023-02-24T10:34:15;11.73;;;6.70;;
63943;SDS011;50121;51.218;7.664;2023-02-24T10:36:47;12.80;;;7.50;;
63943;SDS011;50121;51.218;7.664;2023-02-24T10:39:17;13.93;;;8.63;;
63943;SDS011;50121;51.218;7.664;2023-02-24T10:41:52;14.90;;;8.75;;
63943;SDS011;50121;51.218;7.664;2023-02-24T10:44:42;21.98;;;9.55;;
63943;SDS011;50121;51.218;7.664;2023-02-24T10:47:28;16.40;;;9.05;;
63943;SDS011;50121;51.218;7.664;2023-02-24T10:50:00;16.15;;;9.70;;
63943;SDS011;50121;51.218;7.664;2023-02-24T10:52:38;12.85;;;8.98;;
63943;SDS011;50121;51.218;7.664;2023-02-24T11:00:54;14.73;;;8.50;;
63943;SDS011;50121;51.218;7.664;2023-02-24T11:06:28;12.00;;;7.40;;
63943;SDS011;50121;51.218;7.664;2023-02-24T11:12:14;17.92;;;8.00;;
63943;SDS011;50121;51.218;7.664;2023-02-24T11:15:03;12.50;;;7.50;;
63943;SDS011;50121;51.218;7.664;2023-02-24T11:17:55;17.45;;;9.40;;
63943;SDS011;50121;51.218;7.664;2023-02-24T11:20:37;16.15;;;13.85;;
63943;SDS011;50121;51.218;7.664;2023-02-24T11:23:18;15.88;;;8.45;;
63943;SDS011;50121;51.218;7.664;2023-02-24T11:25:50;12.05;;;7.07;;
63943;SDS011;50121;51.218;7.664;2023-02-24T11:33:50;13.27;;;7.20;;
63943;SDS011;50121;51.218;7.664;2023-02-24T11:41:55;13.02;;;6.20;;
63943;SDS011;50121;51.218;7.664;2023-02-24T11:47:00;13.00;;;7.45;;
63943;SDS011;50121;51.218;7.664;2023-02-24T11:49:30;15.45;;;6.40;;
63943;SDS011;50121;51.218;7.664;2023-02-24T11:52:00;13.07;;;6.13;;
63943;SDS011;50121;51.218;7.664;2023-02-24T11:54:41;13.23;;;6.25;;
63943;SDS011;50121;51.218;7.664;2023-02-24T11:57:12;12.32;;;6.43;;
63943;SDS011;50121;51.218;7.664;2023-02-24T11:59:42;16.58;;;6.38;;
63943;SDS011;50121;51.218;7.664;2023-02-24T12:07:31;13.10;;;7.45;;
63943;SDS011;50121;51.218;7.664;2023-02-24T12:10:00;12.70;;;7.10;;
63943;SDS011;50121;51.218;7.664;2023-02-24T12:12:47;12.57;;;7.07;;
63943;SDS011;50121;51.218;7.664;2023-02-24T12:15:26;15.98;;;7.75;;
63943;SDS011;50121;51.218;7.664;2023-02-24T12:23:13;16.40;;;7.78;;
63943;SDS011;50121;51.218;7.664;2023-02-24T12:25:48;10.75;;;7.90;;
63943;SDS011;50121;51.218;7.664;2023-02-24T12:28:32;13.80;;;7.50;;
63943;SDS011;50121;51.218;7.664;2023-02-24T12:31:22;15.48;;;8.80;;
63943;SDS011;50121;51.218;7.664;2023-02-24T12:34:02;15.77;;;8.13;;
63943;SDS011;50121;51.218;7.664;2023-02-24T12:42:11;13.32;;;7.38;;
63943;SDS011;50121;51.218;7.664;2023-02-24T12:47:13;8.48;;;6.68;;
63943;SDS011;50121;51.218;7.664;2023-02-24T12:49:48;12.55;;;7.65;;
63943;SDS011;50121;51.218;7.664;2023-02-24T12:57:47;19.20;;;9.85;;
63943;SDS011;50121;51.218;7.664;2023-02-24T13:05:43;13.32;;;9.15;;
63943;SDS011;50121;51.218;7.664;2023-02-24T13:10:47;10.75;;;7.75;;
63943;SDS011;50121;51.218;7.664;2023-02-24T13:15:59;13.73;;;9.95;;
63943;SDS011;50121;51.218;7.664;2023-02-24T13:18:31;14.43;;;8.88;;
63943;SDS011;50121;51.218;7.664;2023-02-24T13:21:01;14.27;;;9.40;;
63943;SDS011;50121;51.218;7.664;2023-02-24T13:23:29;15.75;;;10.00;;
63943;SDS011;50121;51.218;7.664;2023-02-24T13:25:57;12.23;;;9.32;;
63943;SDS011;50121;51.218;7.664;2023-02-24T13:28:26;12.93;;;9.85;;
63943;SDS011;50121;51.218;7.664;2023-02-24T13:30:58;12.07;;;9.38;;
63943;SDS011;50121;51.218;7.664;2023-02-24T13:33:32;11.70;;;8.98;;
63943;SDS011;50121;51.218;7.664;2023-02-24T13:36:12;11.32;;;8.95;;
63943;SDS011;50121;51.218;7.664;2023-02-24T13:38:41;9.45;;;7.55;;
63943;SDS011;50121;51.218;7.664;2023-02-24T13:46:20;12.48;;;8.32;;
63943;SDS011;50121;51.218;7.664;2023-02-24T13:56:56;7.75;;;6.60;;
63943;SDS011;50121;51.218;7.664;2023-02-24T14:02:11;10.23;;;7.55;;
63943;SDS011;50121;51.218;7.664;2023-02-24T14:04:58;8.65;;;7.10;;
63943;SDS011;50121;51.218;7.664;2023-02-24T14:07:32;8.02;;;7.20;;
63943;SDS011;50121;51.218;7.664;2023-02-24T14:10:24;9.13;;;6.55;;
63943;SDS011;50121;51.218;7.664;2023-02-24T14:12:59;8.05;;;6.85;;
63943;SDS011;50121;51.218;7.664;2023-02-24T14:15:27;8.20;;;6.63;;
63943;SDS011;50121;51.218;7.664;2023-02-24T14:17:56;8.85;;;7.18;;
63943;SDS011;50121;51.218;7.664;2023-02-24T14:20:25;6.30;;;5.68;;
63943;SDS011;50121;51.218;7.664;2023-02-24T14:22:54;7.63;;;6.85;;
63943;SDS011;50121;51.218;7.664;2023-02-24T14:25:21;7.32;;;6.40;;
63943;SDS011;50121;51.218;7.664;2023-02-24T14:27:50;8.30;;;7.28;;
63943;SDS011;50121;51.218;7.664;2023-02-24T14:32:49;7.13;;;6.43;;
63943;SDS011;50121;51.218;7.664;2023-02-24T14:35:23;7.55;;;6.70;;
63943;SDS011;50121;51.218;7.664;2023-02-24T14:37:51;8.25;;;6.95;;
63943;SDS011;50121;51.218;7.664;2023-02-24T14:40:19;7.03;;;6.35;;
63943;SDS011;50121;51.218;7.664;2023-02-24T14:42:53;8.23;;;6.78;;
63943;SDS011;50121;51.218;7.664;2023-02-24T14:45:24;6.78;;;6.07;;
63943;SDS011;50121;51.218;7.664;2023-02-24T14:47:55;6.28;;;5.68;;
63943;SDS011;50121;51.218;7.664;2023-02-24T14:50:27;6.40;;;5.78;;
63943;SDS011;50121;51.218;7.664;2023-02-24T14:53:05;5.93;;;5.30;;
63943;SDS011;50121;51.218;7.664;2023-02-24T14:55:36;7.32;;;6.50;;
63943;SDS011;50121;51.218;7.664;2023-02-24T15:05:47;7.07;;;6.38;;
63943;SDS011;50121;51.218;7.664;2023-02-24T15:10:54;5.97;;;5.43;;
63943;SDS011;50121;51.218;7.664;2023-02-24T15:15:56;12.40;;;11.30;;
63943;SDS011;50121;51.218;7.664;2023-02-24T15:18:29;6.82;;;6.20;;
63943;SDS011;50121;51.218;7.664;2023-02-24T15:21:00;7.63;;;6.82;;
63943;SDS011;50121;51.218;7.664;2023-02-24T15:23:33;5.22;;;4.72;;
63943;SDS011;50121;51.218;7.664;2023-02-24T15:26:01;8.15;;;7.55;;
63943;SDS011;50121;51.218;7.664;2023-02-24T15:28:33;5.68;;;5.07;;
63943;SDS011;50121;51.218;7.664;2023-02-24T15:31:14;6.35;;;5.75;;
63943;SDS011;50121;51.218;7.664;2023-02-24T15:33:43;6.72;;;6.03;;
63943;SDS011;50121;51.218;7.664;2023-02-24T15:36:14;7.13;;;6.32;;
63943;SDS011;50121;51.218;7.664;2023-02-24T15:38:44;7.55;;;6.75;;
63943;SDS011;50121;51.218;7.664;2023-02-24T15:41:12;12.57;;;8.73;;
63943;SDS011;50121;51.218;7.664;2023-02-24T15:48:45;14.57;;;7.55;;
63943;SDS011;50121;51.218;7.664;2023-02-24T15:51:19;9.23;;;7.05;;
63943;SDS011;50121;51.218;7.664;2023-02-24T15:53:47;17.35;;;7.03;;
63943;SDS011;50121;51.218;7.664;2023-02-24T15:56:15;15.70;;;6.47;;
63943;SDS011;50121;51.218;7.664;2023-02-24T15:58:42;33.20;;;9.05;;
63943;SDS011;50121;51.218;7.664;2023-02-24T16:01:10;15.73;;;7.70;;
63943;SDS011;50121;51.218;7.664;2023-02-24T16:03:38;21.40;;;7.75;;
63943;SDS011;50121;51.218;7.664;2023-02-24T16:06:08;19.83;;;8.02;;
63943;SDS011;50121;51.218;7.664;2023-02-24T16:08:40;36.13;;;8.38;;
63943;SDS011;50121;51.218;7.664;2023-02-24T16:11:10;35.40;;;8.52;;
63943;SDS011;50121;51.218;7.664;2023-02-24T16:13:38;24.20;;;8.43;;
63943;SDS011;50121;51.218;7.664;2023-02-24T16:16:08;37.33;;;9.15;;
63943;SDS011;50121;51.218;7.664;2023-02-24T16:18:38;103.45;;;10.85;;
63943;SDS011;50121;51.218;7.664;2023-02-24T16:21:06;51.58;;;9.13;;
63943;SDS011;50121;51.218;7.664;2023-02-24T16:23:33;43.78;;;9.90;;
63943;SDS011;50121;51.218;7.664;2023-02-24T16:26:08;30.42;;;10.00;;
63943;SDS011;50121;51.218;7.664;2023-02-24T16:28:42;44.55;;;10.90;;
63943;SDS011;50121;51.218;7.664;2023-02-24T16:31:10;49.95;;;10.05;;
63943;SDS011;50121;51.218;7.664;2023-02-24T16:33:37;47.78;;;12.90;;
63943;SDS011;50121;51.218;7.664;2023-02-24T16:36:19;41.53;;;10.52;;
63943;SDS011;50121;51.218;7.664;2023-02-24T16:38:47;57.13;;;9.65;;
63943;SDS011;50121;51.218;7.664;2023-02-24T16:41:17;54.00;;;11.05;;
63943;SDS011;50121;51.218;7.664;2023-02-24T16:43:44;20.23;;;10.77;;
63943;SDS011;50121;51.218;7.664;2023-02-24T16:46:13;24.25;;;11.93;;
63943;SDS011;50121;51.218;7.664;2023-02-24T16:48:44;22.60;;;9.82;;
63943;SDS011;50121;51.218;7.664;2023-02-24T16:51:13;21.95;;;11.20;;
63943;SDS011;50121;51.218;7.664;2023-02-24T16:53:41;81.85;;;11.82;;
63943;SDS011;50121;51.218;7.664;2023-02-24T16:56:09;30.83;;;9.77;;
63943;SDS011;50121;51.218;7.664;2023-02-24T16:58:38;39.92;;;8.35;;
63943;SDS011;50121;51.218;7.664;2023-02-24T17:01:05;18.23;;;10.80;;
63943;SDS011;50121;51.218;7.664;2023-02-24T17:03:40;19.98;;;8.73;;
63943;SDS011;50121;51.218;7.664;2023-02-24T17:06:08;19.73;;;12.13;;
63943;SDS011;50121;51.218;7.664;2023-02-24T17:08:36;25.83;;;12.50;;
63943;SDS011;50121;51.218;7.664;2023-02-24T17:11:03;16.92;;;9.25;;
63943;SDS011;50121;51.218;7.664;2023-02-24T17:13:31;14.40;;;9.27;;
63943;SDS011;50121;51.218;7.664;2023-02-24T17:15:58;18.52;;;9.88;;
63943;SDS011;50121;51.218;7.664;2023-02-24T17:18:29;13.30;;;8.35;;
63943;SDS011;50121;51.218;7.664;2023-02-24T17:20:57;14.98;;;9.23;;
63943;SDS011;50121;51.218;7.664;2023-02-24T17:23:25;15.60;;;10.88;;
63943;SDS011;50121;51.218;7.664;2023-02-24T17:25:53;14.98;;;10.02;;
63943;SDS011;50121;51.218;7.664;2023-02-24T17:28:21;15.35;;;9.43;;
63943;SDS011;50121;51.218;7.664;2023-02-24T17:30:49;9.55;;;5.85;;
63943;SDS011;50121;51.218;7.664;2023-02-24T17:33:17;12.18;;;7.32;;
63943;SDS011;50121;51.218;7.664;2023-02-24T17:35:46;13.50;;;7.90;;
63943;SDS011;50121;51.218;7.664;2023-02-24T17:38:17;15.13;;;8.85;;
63943;SDS011;50121;51.218;7.664;2023-02-24T17:40:45;12.98;;;8.45;;
63943;SDS011;50121;51.218;7.664;2023-02-24T17:43:13;12.05;;;7.45;;
63943;SDS011;50121;51.218;7.664;2023-02-24T17:45:41;12.63;;;8.20;;